Hlavní strana
METAR-TAF:

METAR-TAF

Letiště :

Letiště Ference Liszta Budapešť

Budapešť, Maďarsko

zeměpisná šířka: 47-26N, zeměpisná délka: 019-16E, výška: 151 m

Aktuální stav počasí

Zpráva byla vytvořena před 22 minutami, v 10:00 UTC
Jihojihovýchodní vítr 7 kt, proměnlivý mezi východním a jižním
Teplota 20°C
Vlhkost vzduchu 37%
Tlak 1022 hPa
Viditelnost 10 km a více
Žádná oblačnost pod 1500 m, nevyskytují se cumulonimby.

METAR: LHBP 171000Z 15007KT 100V180 CAVOK 20/05 Q1022 NOSIG

Čas: 12:22 (10:22 UTC)

Předpověď počasí

Zpráva byla vytvořena před 5 hodinami a 7 minutami, v 05:15 UTC
Předpověď platná od 17 v 06 UTC do 18 v 06 UTC
Východní vítr 7 kt
Viditelnost 10 km a více
Žádná oblačnost pod 1500 m, nevyskytují se cumulonimby.
Změna
od 17 v 16 UTC do 17 v 18 UTC
vítr z různých směrů 3 kt

TAF: LHBP 170515Z 1706/1806 10007KT CAVOK BECMG 1716/1718 VRB03KT

Stav a předpovědi počasí z více než 4 000 letišť (zprávy METAR a TAF).

Červené a žluté tečky na mapě představují dostupné meteorologické stanice.

Když kurzor umístíte na tečku, zobrazí se název stanice.

Pak kliknutím zobrazíte stav a předpověď počasí.

Chcete-li změnit mapu, kliknutím na zelené tlačítko se znaménkem +mapu přiblížíte, kliknutím na zelené tlačítko se znaménkem – mapu oddálíte a kliknutím na zelené šipky přejdete na sousední mapy.


METAR-TAF: